Terminal Aerodrome Forecast
Issued by NWS Twin Cities, MN

Home | Current Version | Previous Version | Text Only | Print | Product List | Glossary On
Versions: 1 2 3 4 5 6 7 8 9 10 11 12 13 14 15 16 17 18 19
000
FTUS43 KMPX 241100
TAFSTC
TAF
KSTC 241129Z 2412/2512 14005KT P6SM SCT200
      TEMPO 2412/2413 5SM BR
     FM241700 17010G18KT P6SM SCT100
     FM250100 15008KT P6SM BKN100
     FM250600 14008KT P6SM BKN070=

USA.gov is the U.S. government's official web portal to all federal, state and local government web resources and services.